Time;durP1;ratioP1;P1;durP2;ratioP2;P2;SDS_P1;SDS_P2;PMS_P1;PMS_P2;Temp;Humidity;BMP_temperature;BMP_pressure;BME280_temperature;BME280_humidity;BME280_pressure;Samples;Min_cycle;Max_cycle;Signal;HPM_P1;HPM_P2
2022/11/17 00:00:07;;;;;;;23.73;12.40;;;;;;;9.65;nan;-24086.72;5018611;28;20179;-66
2022/11/17 00:02:32;;;;;;;18.65;10.23;;;;;;;10.00;nan;-24096.31;5033133;28;20198;-67
2022/11/17 00:04:58;;;;;;;19.80;9.35;;;;;;;9.78;nan;-24090.25;5022538;28;20195;-67
2022/11/17 00:07:23;;;;;;;24.33;10.75;;;;;;;9.76;nan;-24089.81;5013119;28;20262;-67
2022/11/17 00:10:33;;;;;;;24.58;10.85;;;;;;;9.97;nan;-24095.47;5013022;28;20235;-67
2022/11/17 00:15:43;;;;;;;23.85;10.55;;;;;;;9.71;nan;-24088.25;5013037;28;20258;-66
2022/11/17 00:23:46;;;;;;;25.45;10.55;;;;;;;10.02;nan;-24097.03;5012423;28;20175;-66
2022/11/17 00:26:22;;;;;;;20.10;10.98;;;;;;;9.93;nan;-24094.47;5012604;28;20281;-68
2022/11/17 00:28:52;;;;;;;23.30;9.93;;;;;;;9.91;nan;-24093.91;5012394;28;20211;-66
2022/11/17 00:34:04;;;;;;;15.60;8.75;;;;;;;10.29;nan;-24104.38;5011789;28;20653;-67
2022/11/17 00:36:36;;;;;;;17.50;9.25;;;;;;;10.13;nan;-24099.97;5013051;28;20176;-67
2022/11/17 00:39:02;;;;;;;26.35;10.82;;;;;;;9.73;nan;-24088.81;5012562;28;20709;-67
2022/11/17 00:41:28;;;;;;;20.10;10.38;;;;;;;9.97;nan;-24095.47;5012483;28;20183;-67
2022/11/17 00:43:53;;;;;;;22.40;11.50;;;;;;;10.16;nan;-24100.97;5011159;28;20258;-67
2022/11/17 00:46:19;;;;;;;22.63;9.98;;;;;;;9.88;nan;-24092.91;5012576;28;20199;-66
2022/11/17 00:48:44;;;;;;;20.58;10.07;;;;;;;10.13;nan;-24100.13;5012724;28;20190;-67
2022/11/17 00:51:09;;;;;;;22.65;10.27;;;;;;;9.76;nan;-24089.81;5012244;28;20179;-67
2022/11/17 00:53:35;;;;;;;21.65;9.93;;;;;;;9.64;nan;-24086.44;5012229;28;20652;-67
2022/11/17 00:56:00;;;;;;;23.48;10.32;;;;;;;9.92;nan;-24094.19;5012201;28;20196;-67
2022/11/17 00:58:25;;;;;;;27.55;11.43;;;;;;;9.94;nan;-24094.63;5012480;28;20169;-67
2022/11/17 01:00:51;;;;;;;17.10;10.07;;;;;;;10.00;nan;-24096.31;5012208;28;20199;-67
2022/11/17 01:03:16;;;;;;;24.13;10.70;;;;;;;9.90;nan;-24093.63;5011627;28;20204;-67
2022/11/17 01:05:41;;;;;;;25.48;10.88;;;;;;;9.91;nan;-24093.78;5011869;28;20617;-66
2022/11/17 01:08:07;;;;;;;22.30;10.20;;;;;;;9.58;nan;-24084.59;5011883;28;20299;-67
2022/11/17 01:10:35;;;;;;;27.08;10.65;;;;;;;9.62;nan;-24085.72;5011675;28;20172;-66
2022/11/17 01:13:01;;;;;;;27.10;11.00;;;;;;;9.88;nan;-24092.91;5011833;28;20179;-67
2022/11/17 01:15:27;;;;;;;24.98;10.52;;;;;;;9.76;nan;-24089.66;5012097;28;20172;-66
2022/11/17 01:17:52;;;;;;;22.05;11.00;;;;;;;9.83;nan;-24091.50;5011959;28;20179;-67
2022/11/17 01:20:18;;;;;;;21.77;9.68;;;;;;;9.45;nan;-24081.06;5010173;28;20186;-66
2022/11/17 01:22:43;;;;;;;20.73;10.75;;;;;;;9.80;nan;-24090.81;5011168;28;20582;-66
2022/11/17 01:25:09;;;;;;;20.40;10.50;;;;;;;9.79;nan;-24090.53;5011467;28;20187;-67
2022/11/17 01:27:34;;;;;;;23.75;10.32;;;;;;;9.33;nan;-24077.66;5011436;28;20223;-66
2022/11/17 01:29:59;;;;;;;20.92;8.77;;;;;;;9.40;nan;-24079.50;5011149;28;20218;-67
2022/11/17 01:32:25;;;;;;;28.00;10.20;;;;;;;9.72;nan;-24088.53;5011445;28;20176;-67
2022/11/17 01:34:50;;;;;;;21.52;9.93;;;;;;;9.59;nan;-24085.00;5010645;28;20203;-66
2022/11/17 01:37:18;;;;;;;20.90;10.73;;;;;;;9.60;nan;-24085.28;5011344;28;20180;-67
2022/11/17 01:39:44;;;;;;;23.65;10.98;;;;;;;9.22;nan;-24074.69;5011768;28;20222;-67
2022/11/17 01:42:19;;;;;;;20.92;9.13;;;;;;;9.54;nan;-24083.59;5011182;28;20176;-66
2022/11/17 01:44:50;;;;;;;25.27;9.85;;;;;;;9.62;nan;-24085.84;5012856;28;20171;-66
2022/11/17 01:47:22;;;;;;;24.00;10.50;;;;;;;9.56;nan;-24084.03;5015263;28;20187;-66
2022/11/17 01:49:50;;;;;;;31.27;11.30;;;;;;;9.38;nan;-24079.06;5015081;28;20214;-67
2022/11/17 01:52:16;;;;;;;17.48;9.55;;;;;;;9.53;nan;-24083.31;5014559;28;20179;-68
2022/11/17 01:54:44;;;;;;;24.67;10.95;;;;;;;9.46;nan;-24081.34;5015460;28;20172;-67
2022/11/17 01:57:20;;;;;;;22.65;10.98;;;;;;;9.37;nan;-24078.78;5015562;28;20183;-67
2022/11/17 01:59:55;;;;;;;23.05;11.05;;;;;;;9.19;nan;-24073.72;5015317;28;20251;-67
2022/11/17 02:02:22;;;;;;;25.05;10.57;;;;;;;8.99;nan;-24068.03;5015656;28;20167;-67
2022/11/17 02:05:04;;;;;;;26.70;11.32;;;;;;;9.23;nan;-24074.84;5015281;28;20182;-67
2022/11/17 02:07:35;;;;;;;19.50;10.02;;;;;;;9.07;nan;-24070.31;5015459;28;20267;-66
2022/11/17 02:10:02;;;;;;;18.00;11.20;;;;;;;9.00;nan;-24068.47;5015295;28;20200;-67
2022/11/17 02:13:07;;;;;;;19.73;10.57;;;;;;;9.32;nan;-24077.53;5015354;28;20169;-67
2022/11/17 02:15:32;;;;;;;25.08;11.30;;;;;;;9.29;nan;-24076.66;5015422;28;20592;-67
2022/11/17 02:17:59;;;;;;;25.65;12.18;;;;;;;8.96;nan;-24067.19;5015439;28;20263;-66
2022/11/17 02:20:34;;;;;;;31.67;10.07;;;;;;;9.21;nan;-24074.41;5015427;28;20198;-67
2022/11/17 02:23:14;;;;;;;21.88;11.80;;;;;;;9.29;nan;-24076.53;5015019;28;20175;-67
2022/11/17 02:25:52;;;;;;;26.33;10.55;;;;;;;9.28;nan;-24076.25;5015031;28;20246;-67
2022/11/17 02:28:22;;;;;;;20.58;10.07;;;;;;;8.90;nan;-24065.50;5014893;28;20207;-66
2022/11/17 02:31:08;;;;;;;26.52;10.70;;;;;;;9.14;nan;-24072.44;5015251;28;20314;-67
2022/11/17 02:33:51;;;;;;;31.38;11.32;;;;;;;8.88;nan;-24065.22;5014971;28;20172;-66
2022/11/17 02:36:30;;;;;;;27.75;12.43;;;;;;;8.71;nan;-24060.41;5014888;28;20180;-66
2022/11/17 02:39:02;;;;;;;25.77;10.02;;;;;;;8.81;nan;-24063.09;5015097;28;20176;-67
2022/11/17 02:41:42;;;;;;;22.55;10.48;;;;;;;9.05;nan;-24069.75;5014689;28;20738;-67
2022/11/17 02:44:36;;;;;;;25.95;11.65;;;;;;;9.03;nan;-24069.19;5014566;28;20183;-67
2022/11/17 02:47:13;;;;;;;22.77;12.25;;;;;;;9.01;nan;-24068.63;5014406;28;20172;-66
2022/11/17 02:49:44;;;;;;;32.75;12.38;;;;;;;8.61;nan;-24057.56;5014339;28;20210;-66
2022/11/17 02:52:11;;;;;;;23.90;11.75;;;;;;;8.51;nan;-24054.75;5014600;28;20164;-67
2022/11/17 02:54:36;;;;;;;26.45;12.60;;;;;;;8.55;nan;-24055.75;5013650;28;20668;-67
2022/11/17 02:57:01;;;;;;;23.33;11.13;;;;;;;8.58;nan;-24056.59;5013246;28;20180;-66
2022/11/17 02:59:35;;;;;;;21.83;11.13;;;;;;;8.83;nan;-24063.66;5014853;28;20168;-68
2022/11/17 03:02:17;;;;;;;27.00;10.55;;;;;;;8.50;nan;-24054.47;5014461;28;20191;-67
2022/11/17 03:05:08;;;;;;;21.33;10.75;;;;;;;8.83;nan;-24063.66;5014615;28;20183;-67
2022/11/17 03:07:55;;;;;;;18.98;10.35;;;;;;;8.85;nan;-24064.38;5013921;28;20188;-67
2022/11/17 03:11:07;;;;;;;25.38;10.45;;;;;;;8.75;nan;-24061.41;5014010;28;20685;-65
2022/11/17 03:14:00;;;;;;;27.47;10.30;;;;;;;8.71;nan;-24060.25;5012407;28;20209;-67
2022/11/17 03:16:44;;;;;;;26.83;11.37;;;;;;;8.68;nan;-24059.56;5013481;28;20196;-66
2022/11/17 03:19:27;;;;;;;19.57;9.53;;;;;;;6.58;nan;-24000.59;5013650;28;20589;-66
2022/11/17 03:22:16;;;;;;;25.95;11.75;;;;;;;8.36;nan;-24050.66;5014085;28;20172;-67
2022/11/17 03:25:05;;;;;;;23.37;11.63;;;;;;;8.35;nan;-24050.38;5013734;28;20235;-66
2022/11/17 03:27:41;;;;;;;22.50;9.70;;;;;;;8.67;nan;-24059.28;5013474;28;20301;-67
2022/11/17 03:30:08;;;;;;;29.47;11.30;;;;;;;8.42;nan;-24052.19;5013975;28;20187;-67
2022/11/17 03:32:39;;;;;;;24.63;11.20;;;;;;;8.55;nan;-24055.75;5014213;28;20180;-67
2022/11/17 03:35:18;;;;;;;23.38;10.95;;;;;;;4.19;nan;-23933.34;5013772;28;20168;-66
2022/11/17 03:37:52;;;;;;;26.70;11.83;;;;;;;8.64;nan;-24058.44;5013436;28;20215;-67
2022/11/17 03:40:22;;;;;;;19.30;9.60;;;;;;;8.62;nan;-24057.72;5014006;28;20171;-67
2022/11/17 03:42:52;;;;;;;23.13;11.13;;;;;;;8.62;nan;-24057.88;5013567;28;20196;-67
2022/11/17 03:45:30;;;;;;;19.03;10.20;;;;;;;8.17;nan;-24045.13;5013626;28;20504;-66
2022/11/17 03:48:01;;;;;;;29.17;11.73;;;;;;;8.58;nan;-24056.59;5013626;28;20164;-67
2022/11/17 03:50:33;;;;;;;28.53;10.43;;;;;;;8.48;nan;-24053.91;5013475;28;20255;-66
2022/11/17 03:53:00;;;;;;;22.60;10.00;;;;;;;8.38;nan;-24051.06;5013896;28;20176;-68
2022/11/17 03:55:34;;;;;;;19.77;10.53;;;;;;;8.02;nan;-24040.88;5013521;28;20178;-67
2022/11/17 03:58:08;;;;;;;20.27;11.18;;;;;;;8.42;nan;-24052.34;5013176;28;20266;-68
2022/11/17 04:00:36;;;;;;;21.33;9.97;;;;;;;8.30;nan;-24048.81;5013409;28;20223;-67
2022/11/17 04:03:02;;;;;;;27.27;11.40;;;;;;;8.04;nan;-24041.56;5013241;28;20725;-67
2022/11/17 04:05:27;;;;;;;19.90;11.50;;;;;;;8.42;nan;-24052.19;5012723;28;20168;-68
2022/11/17 04:07:52;;;;;;;21.87;11.17;;;;;;;8.60;nan;-24057.28;5012644;28;20239;-68
2022/11/17 04:10:20;;;;;;;23.70;10.93;;;;;;;8.47;nan;-24053.47;5013116;28;20172;-67
2022/11/17 04:18:15;;;;;;;20.92;9.60;;;;;;;8.47;nan;-24053.47;5012964;28;20202;-67
2022/11/17 04:20:41;;;;;;;25.53;12.10;;;;;;;8.39;nan;-24051.34;5012915;28;20168;-66
2022/11/17 04:23:10;;;;;;;24.33;11.53;;;;;;;8.15;nan;-24044.56;5013197;28;20256;-66
2022/11/17 04:28:37;;;;;;;23.10;11.63;;;;;;;8.20;nan;-24045.97;5012930;28;20207;-66
2022/11/17 04:31:13;;;;;;;29.77;11.83;;;;;;;8.64;nan;-24058.28;5012775;28;20157;-67
2022/11/17 04:33:50;;;;;;;22.80;11.57;;;;;;;8.39;nan;-24051.34;5013176;28;20199;-67
2022/11/17 04:36:18;;;;;;;23.67;10.73;;;;;;;8.55;nan;-24055.88;5012395;28;20542;-67
2022/11/17 04:38:49;;;;;;;22.37;11.50;;;;;;;8.12;nan;-24043.84;5013009;28;20171;-67
2022/11/17 04:44:01;;;;;;;19.37;10.47;;;;;;;8.48;nan;-24053.91;5013152;28;20187;-67
2022/11/17 04:46:29;;;;;;;25.80;11.03;;;;;;;8.14;nan;-24044.28;5012719;28;20185;-67
2022/11/17 04:48:56;;;;;;;24.30;11.07;;;;;;;8.18;nan;-24045.41;5012471;28;20217;-68
2022/11/17 04:51:22;;;;;;;21.48;10.57;;;;;;;8.52;nan;-24054.88;5010735;28;20266;-68
2022/11/17 04:53:48;;;;;;;23.30;12.63;;;;;;;8.38;nan;-24051.06;5012033;28;20243;-67
2022/11/17 04:56:14;;;;;;;24.58;10.95;;;;;;;8.36;nan;-24050.50;5011755;28;20176;-67
2022/11/17 04:59:06;;;;;;;20.05;10.95;;;;;;;8.58;nan;-24056.72;5026745;28;20178;-67
2022/11/17 05:01:33;;;;;;;27.13;11.70;;;;;;;8.28;nan;-24048.22;5013539;28;20271;-68
2022/11/17 05:04:00;;;;;;;25.08;11.02;;;;;;;8.68;nan;-24059.56;5011855;28;20595;-68
2022/11/17 05:06:34;;;;;;;32.03;12.85;;;;;;;8.66;nan;-24059.00;5011919;28;20263;-67
2022/11/17 05:09:03;;;;;;;33.30;12.93;;;;;;;8.57;nan;-24056.31;5009497;28;20207;-68
2022/11/17 05:14:16;;;;;;;31.67;13.17;;;;;;;8.50;nan;-24054.31;5030975;28;20241;-66
2022/11/17 05:19:27;;;;;;;26.13;11.70;;;;;;;8.41;nan;-24051.91;5030443;28;20179;-67
2022/11/17 05:21:53;;;;;;;28.25;12.25;;;;;;;8.72;nan;-24060.69;5030982;28;20172;-68
2022/11/17 05:24:19;;;;;;;28.00;11.43;;;;;;;8.32;nan;-24049.50;5031727;28;20229;-68
2022/11/17 06:10:20;;;;;;;20.35;9.85;;;;;;;8.89;nan;-24065.34;5182578;22;20622;-71
2022/11/17 06:12:46;;;;;;;23.27;9.82;;;;;;;8.95;nan;-24067.06;5008709;28;20301;-70
2022/11/17 06:15:11;;;;;;;25.38;11.82;;;;;;;8.88;nan;-24065.06;5008765;28;20661;-72
2022/11/17 06:17:46;;;;;;;23.77;10.55;;;;;;;8.69;nan;-24059.84;5002676;28;20226;-70
2022/11/17 06:20:19;;;;;;;20.35;11.32;;;;;;;9.02;nan;-24069.03;5009870;28;20164;-70
2022/11/17 06:22:45;;;;;;;27.42;11.20;;;;;;;8.86;nan;-24064.66;5009879;28;20168;-72
2022/11/17 06:25:11;;;;;;;25.60;11.57;;;;;;;8.25;nan;-24047.38;5010034;28;20206;-71
2022/11/17 06:27:39;;;;;;;30.80;12.87;;;;;;;8.45;nan;-24052.91;5010785;28;20186;-72
2022/11/17 06:30:05;;;;;;;25.95;12.70;;;;;;;8.50;nan;-24054.47;4988623;28;20196;-70
2022/11/17 06:32:33;;;;;;;27.30;12.55;;;;;;;8.88;nan;-24064.94;4994902;28;20185;-72
2022/11/17 06:35:00;;;;;;;27.17;11.55;;;;;;;8.91;nan;-24065.94;4995097;28;20212;-71
2022/11/17 06:37:25;;;;;;;23.15;12.18;;;;;;;9.08;nan;-24070.59;4995193;28;20662;-70
2022/11/17 06:39:51;;;;;;;22.65;12.00;;;;;;;8.61;nan;-24057.44;4995249;28;20192;-70
2022/11/17 06:42:17;;;;;;;24.58;12.07;;;;;;;8.92;nan;-24066.06;4994942;28;20706;-70
2022/11/17 06:44:42;;;;;;;21.80;10.38;;;;;;;8.98;nan;-24067.75;4995133;28;20180;-70
2022/11/17 06:47:08;;;;;;;27.40;12.90;;;;;;;8.21;nan;-24046.25;4994962;28;20176;-70
2022/11/17 06:49:33;;;;;;;34.05;13.60;;;;;;;8.99;nan;-24068.03;5011909;28;20203;-73
2022/11/17 06:51:58;;;;;;;33.17;13.18;;;;;;;9.34;nan;-24077.94;5016212;28;20678;-72
2022/11/17 06:54:24;;;;;;;24.10;12.97;;;;;;;9.03;nan;-24069.19;5013898;28;20584;-72
2022/11/17 06:56:51;;;;;;;29.37;11.67;;;;;;;9.08;nan;-24070.72;5014029;28;20318;-72
2022/11/17 06:59:16;;;;;;;26.47;11.90;;;;;;;9.31;nan;-24077.09;5014046;28;20582;-72
2022/11/17 07:01:42;;;;;;;26.42;12.93;;;;;;;9.18;nan;-24073.41;5002114;28;20204;-72
2022/11/17 07:04:08;;;;;;;28.40;11.23;;;;;;;9.04;nan;-24069.47;4994303;28;20231;-72
2022/11/17 07:06:37;;;;;;;22.92;12.25;;;;;;;9.67;nan;-24087.28;4993470;28;20180;-72
2022/11/17 07:09:03;;;;;;;30.42;13.13;;;;;;;9.57;nan;-24084.44;5011874;28;20210;-71
2022/11/17 07:11:29;;;;;;;29.92;13.05;;;;;;;9.77;nan;-24090.09;5028574;28;20227;-71
2022/11/17 07:13:56;;;;;;;28.92;11.13;;;;;;;9.91;nan;-24093.78;5023871;28;20186;-72
2022/11/17 07:16:21;;;;;;;24.33;12.40;;;;;;;9.98;nan;-24095.75;5027983;28;20183;-72
2022/11/17 07:18:47;;;;;;;25.77;13.10;;;;;;;9.65;nan;-24086.56;5033921;28;20221;-71
2022/11/17 07:21:13;;;;;;;26.52;11.93;;;;;;;9.94;nan;-24094.63;5033335;28;20202;-71
2022/11/17 07:23:41;;;;;;;29.05;12.30;;;;;;;9.96;nan;-24095.19;5033457;28;20183;-71
2022/11/17 07:26:07;;;;;;;30.80;11.63;;;;;;;10.01;nan;-24096.59;5033396;28;20207;-71
2022/11/17 07:28:33;;;;;;;31.10;11.77;;;;;;;9.82;nan;-24091.38;5015454;28;20230;-71
2022/11/17 07:31:04;;;;;;;21.27;11.65;;;;;;;10.19;nan;-24101.81;5032895;28;20186;-72
2022/11/17 07:33:31;;;;;;;32.88;13.90;;;;;;;10.36;nan;-24106.47;5033217;28;20171;-72
2022/11/17 07:36:08;;;;;;;20.50;10.80;;;;;;;10.48;nan;-24109.88;5015376;28;20241;-71
2022/11/17 07:38:35;;;;;;;26.48;12.15;;;;;;;10.10;nan;-24099.13;5033271;28;20218;-71
2022/11/17 07:41:01;;;;;;;24.52;12.13;;;;;;;10.24;nan;-24103.09;5015250;28;20281;-72
2022/11/17 07:43:27;;;;;;;28.73;12.32;;;;;;;10.30;nan;-24104.78;5032469;28;20178;-71
2022/11/17 07:45:53;;;;;;;27.92;12.30;;;;;;;10.17;nan;-24101.13;5032913;28;20167;-71
2022/11/17 07:48:18;;;;;;;21.77;11.02;;;;;;;10.39;nan;-24107.19;5032991;28;20241;-72
2022/11/17 07:50:44;;;;;;;26.38;12.43;;;;;;;9.99;nan;-24096.16;5032752;28;20524;-71
2022/11/17 07:53:09;;;;;;;29.10;13.40;;;;;;;10.34;nan;-24105.91;5032899;28;20201;-72
2022/11/17 07:55:35;;;;;;;28.35;14.07;;;;;;;10.16;nan;-24100.84;5032876;28;20159;-71
2022/11/17 07:58:01;;;;;;;26.15;11.50;;;;;;;10.28;nan;-24104.22;5032489;28;20217;-72
2022/11/17 08:00:28;;;;;;;36.10;14.68;;;;;;;10.41;nan;-24107.75;5018789;28;20258;-71
2022/11/17 08:02:54;;;;;;;29.13;12.02;;;;;;;10.39;nan;-24107.31;5015573;28;20196;-71
2022/11/17 08:05:20;;;;;;;32.88;13.32;;;;;;;10.07;nan;-24098.28;5020452;28;20270;-71
2022/11/17 08:07:53;;;;;;;24.30;12.50;;;;;;;10.05;nan;-24097.72;5019240;28;20190;-71
2022/11/17 08:10:19;;;;;;;26.50;11.82;;;;;;;9.91;nan;-24093.91;5016316;28;20187;-71
2022/11/17 08:12:44;;;;;;;28.90;10.93;;;;;;;10.15;nan;-24100.69;5031933;28;20202;-71
2022/11/17 08:15:10;;;;;;;24.95;11.50;;;;;;;10.12;nan;-24099.69;5032208;28;20626;-71
2022/11/17 08:17:35;;;;;;;28.35;12.90;;;;;;;9.90;nan;-24093.47;5032456;28;20172;-72
2022/11/17 08:20:02;;;;;;;29.55;13.10;;;;;;;10.17;nan;-24101.13;5032214;28;20183;-72
2022/11/17 08:22:28;;;;;;;23.27;11.15;;;;;;;10.08;nan;-24098.72;5032178;28;20251;-72
2022/11/17 08:24:53;;;;;;;32.85;12.90;;;;;;;9.98;nan;-24095.88;5032184;28;20632;-70
2022/11/17 08:27:18;;;;;;;30.77;12.80;;;;;;;9.91;nan;-24093.78;5014204;28;20182;-73
2022/11/17 08:29:44;;;;;;;25.90;12.63;;;;;;;10.01;nan;-24096.72;5032373;28;20265;-73
2022/11/17 08:32:10;;;;;;;27.92;12.73;;;;;;;10.27;nan;-24103.94;5032272;28;20168;-71
2022/11/17 08:34:35;;;;;;;24.10;12.68;;;;;;;9.87;nan;-24092.78;5032336;28;20250;-72
2022/11/17 08:37:01;;;;;;;25.00;11.55;;;;;;;10.08;nan;-24098.56;5014059;28;20254;-71
2022/11/17 08:39:26;;;;;;;22.83;11.90;;;;;;;10.36;nan;-24106.47;5031151;28;20634;-72
2022/11/17 08:41:51;;;;;;;37.63;14.15;;;;;;;10.31;nan;-24104.94;5031663;28;20254;-72
2022/11/17 08:44:17;;;;;;;30.67;13.70;;;;;;;9.92;nan;-24094.06;5031622;28;20179;-71
2022/11/17 08:46:42;;;;;;;37.42;13.73;;;;;;;9.94;nan;-24094.75;5032077;28;20163;-72
2022/11/17 08:49:08;;;;;;;26.35;12.75;;;;;;;10.19;nan;-24101.69;5031775;28;20195;-72
2022/11/17 08:51:33;;;;;;;23.60;11.15;;;;;;;10.04;nan;-24097.44;5032002;28;20155;-72
2022/11/17 08:53:59;;;;;;;22.92;10.35;;;;;;;9.89;nan;-24093.34;5031013;28;20179;-71
2022/11/17 08:56:24;;;;;;;19.23;9.32;;;;;;;10.04;nan;-24097.44;5031501;28;20163;-72
2022/11/17 08:58:50;;;;;;;26.38;10.85;;;;;;;10.04;nan;-24097.59;5031423;28;20167;-73
2022/11/17 09:01:16;;;;;;;16.45;8.15;;;;;;;10.18;nan;-24101.53;5031701;28;20170;-71
2022/11/17 09:03:43;;;;;;;17.80;8.90;;;;;;;9.85;nan;-24092.22;5031692;28;20207;-73
2022/11/17 09:06:09;;;;;;;17.35;8.35;;;;;;;9.97;nan;-24095.47;5031555;28;20234;-73
2022/11/17 09:08:35;;;;;;;19.23;8.80;;;;;;;10.39;nan;-24107.31;5031903;28;20680;-73
2022/11/17 09:11:06;;;;;;;18.23;8.95;;;;;;;10.22;nan;-24102.38;5031510;28;20223;-71
2022/11/17 09:13:31;;;;;;;21.55;10.27;;;;;;;9.98;nan;-24095.88;5031851;28;20254;-71
2022/11/17 09:16:03;;;;;;;19.83;8.70;;;;;;;10.46;nan;-24109.31;5031474;28;20589;-72
2022/11/17 09:18:29;;;;;;;18.42;8.77;;;;;;;10.13;nan;-24100.13;5031459;28;20163;-72
2022/11/17 09:21:00;;;;;;;17.70;8.05;;;;;;;10.31;nan;-24105.06;5031422;28;20202;-72
2022/11/17 09:23:27;;;;;;;17.55;9.98;;;;;;;10.42;nan;-24108.03;5013615;28;20175;-71
2022/11/17 09:25:52;;;;;;;22.45;9.30;;;;;;;10.33;nan;-24105.63;5031445;28;20175;-61
2022/11/17 09:28:17;;;;;;;19.05;9.35;;;;;;;10.34;nan;-24105.91;5032304;28;20195;-62
2022/11/17 09:30:43;;;;;;;21.63;10.82;;;;;;;10.48;nan;-24109.72;5031986;28;20178;-60
2022/11/17 09:33:08;;;;;;;25.70;10.75;;;;;;;10.80;nan;-24118.75;5031804;28;20211;-60
2022/11/17 09:35:34;;;;;;;25.05;11.45;;;;;;;10.77;nan;-24117.91;5031825;28;20175;-62
2022/11/17 09:38:00;;;;;;;22.80;11.38;;;;;;;10.41;nan;-24107.88;5031584;28;20198;-62
2022/11/17 09:40:26;;;;;;;24.85;12.15;;;;;;;10.69;nan;-24115.50;5031515;28;20170;-62
2022/11/17 09:42:52;;;;;;;22.67;10.60;;;;;;;10.86;nan;-24120.31;5031770;28;20168;-61
2022/11/17 09:45:32;;;;;;;24.77;10.50;;;;;;;11.05;nan;-24125.81;5031088;28;20186;-61
2022/11/17 09:48:17;;;;;;;19.38;10.02;;;;;;;11.10;nan;-24126.94;5031507;28;20252;-60
2022/11/17 09:50:44;;;;;;;21.92;10.20;;;;;;;10.77;nan;-24117.78;5031055;28;20215;-61
2022/11/17 09:53:48;;;;;;;19.63;9.52;;;;;;;11.29;nan;-24132.44;5013419;28;20226;-62
2022/11/17 09:56:13;;;;;;;20.10;9.30;;;;;;;11.04;nan;-24125.38;4970378;28;20236;-60
2022/11/17 09:59:00;;;;;;;23.02;10.23;;;;;;;11.23;nan;-24130.75;5018675;28;20198;-61
2022/11/17 10:01:27;;;;;;;19.80;9.43;;;;;;;11.68;nan;-24143.13;5031576;28;20262;-61
2022/11/17 10:03:55;;;;;;;17.05;8.65;;;;;;;11.89;nan;-24149.19;5031256;28;20535;-61
2022/11/17 10:06:27;;;;;;;17.02;8.48;;;;;;;12.19;nan;-24157.50;5033682;28;20190;-61
2022/11/17 10:09:30;;;;;;;15.50;8.20;;;;;;;12.53;nan;-24166.94;5035237;28;20199;-61
2022/11/17 10:12:11;;;;;;;18.17;8.82;;;;;;;12.76;nan;-24173.25;5034817;28;20222;-61
2022/11/17 10:14:39;;;;;;;18.85;9.52;;;;;;;12.85;nan;-24175.78;5035495;28;20162;-61
2022/11/17 10:17:04;;;;;;;21.33;10.02;;;;;;;12.62;nan;-24169.31;5035396;28;20208;-61
2022/11/17 10:19:31;;;;;;;22.38;8.05;;;;;;;12.50;nan;-24165.94;5034933;28;20265;-61
2022/11/17 10:22:16;;;;;;;18.02;8.70;;;;;;;12.75;nan;-24172.97;5034714;28;20186;-61
2022/11/17 10:24:41;;;;;;;20.25;9.18;;;;;;;13.11;nan;-24183.09;5028454;28;20191;-61
2022/11/17 10:27:27;;;;;;;16.33;8.70;;;;;;;13.36;nan;-24189.84;5025365;28;20190;-61
2022/11/17 10:30:02;;;;;;;17.95;8.32;;;;;;;13.53;nan;-24194.63;5031650;28;20223;-61
2022/11/17 10:32:30;;;;;;;22.50;8.98;;;;;;;13.34;nan;-24189.44;5014392;28;20179;-61
2022/11/17 10:35:12;;;;;;;16.25;8.30;;;;;;;13.39;nan;-24190.84;5019863;28;20191;-61
2022/11/17 10:37:41;;;;;;;20.05;8.75;;;;;;;13.69;nan;-24199.13;5034360;28;20225;-61
2022/11/17 10:40:21;;;;;;;17.73;8.02;;;;;;;13.52;nan;-24194.34;5034344;28;20665;-61
2022/11/17 10:43:12;;;;;;;17.35;8.68;;;;;;;13.73;nan;-24200.09;5034559;28;20170;-61
2022/11/17 10:46:00;;;;;;;17.17;8.98;;;;;;;13.67;nan;-24198.69;5034708;28;20179;-60
2022/11/17 10:48:29;;;;;;;20.90;8.35;;;;;;;13.91;nan;-24205.28;5034199;28;20195;-60
2022/11/17 10:50:56;;;;;;;18.80;8.30;;;;;;;13.39;nan;-24190.69;5033545;28;20601;-60
2022/11/17 10:53:35;;;;;;;19.85;8.40;;;;;;;13.32;nan;-24188.72;5034304;28;20183;-61
2022/11/17 10:56:20;;;;;;;13.82;7.60;;;;;;;9.03;nan;-24069.19;5034397;28;20622;-61
2022/11/17 10:59:15;;;;;;;15.18;7.32;;;;;;;13.15;nan;-24184.22;5034236;28;20687;-61
2022/11/17 11:01:43;;;;;;;19.63;9.20;;;;;;;7.09;nan;-24015.06;5033915;28;20172;-60
2022/11/17 11:04:32;;;;;;;15.90;7.90;;;;;;;13.20;nan;-24185.63;5034277;28;20654;-61
2022/11/17 11:07:20;;;;;;;17.77;8.18;;;;;;;13.42;nan;-24191.53;5034867;28;20539;-61
2022/11/17 11:09:54;;;;;;;19.33;7.35;;;;;;;13.42;nan;-24191.53;5034043;28;20222;-61
2022/11/17 11:12:31;;;;;;;27.83;10.20;;;;;;;13.51;nan;-24194.19;5034220;28;20222;-60
2022/11/17 11:14:58;;;;;;;19.52;8.68;;;;;;;13.75;nan;-24200.81;5033933;28;20696;-60
2022/11/17 11:17:27;;;;;;;18.02;8.43;;;;;;;13.85;nan;-24203.59;5033288;28;20642;-60
2022/11/17 11:19:53;;;;;;;18.23;8.60;;;;;;;12.16;nan;-24156.53;5033539;28;20171;-61
2022/11/17 11:22:43;;;;;;;20.25;8.73;;;;;;;14.01;nan;-24208.09;5033454;28;20170;-60
2022/11/17 11:25:24;;;;;;;15.45;8.35;;;;;;;14.43;nan;-24219.75;5033445;28;20163;-60
2022/11/17 11:28:10;;;;;;;19.15;8.48;;;;;;;14.04;nan;-24208.94;5033276;28;20619;-62
2022/11/17 11:30:47;;;;;;;17.58;8.85;;;;;;;14.51;nan;-24221.84;5033589;28;20229;-61
2022/11/17 11:33:32;;;;;;;15.20;7.32;;;;;;;14.49;nan;-24221.44;5034124;28;20182;-61
2022/11/17 11:36:25;;;;;;;17.88;7.93;;;;;;;14.65;nan;-24225.63;5033660;28;20262;-61
2022/11/17 11:38:50;;;;;;;15.02;7.70;;;;;;;14.56;nan;-24223.25;5033653;28;20175;-61
2022/11/17 11:41:30;;;;;;;15.55;8.70;;;;;;;14.69;nan;-24226.75;5033143;28;20168;-61
2022/11/17 11:44:28;;;;;;;16.73;7.97;;;;;;;14.92;nan;-24233.22;5033498;28;20163;-61
2022/11/17 11:47:14;;;;;;;16.77;7.70;;;;;;;15.32;nan;-24244.28;5033496;28;20159;-61
2022/11/17 11:49:52;;;;;;;22.23;8.75;;;;;;;15.73;nan;-24255.63;5033483;28;20199;-61
2022/11/17 11:52:21;;;;;;;15.55;8.18;;;;;;;15.16;nan;-24239.78;5033435;28;20179;-61
2022/11/17 11:54:55;;;;;;;14.82;6.78;;;;;;;15.49;nan;-24249.03;5033409;28;20203;-61
2022/11/17 11:57:28;;;;;;;15.50;8.23;;;;;;;15.80;nan;-24257.72;5032982;28;20179;-61
2022/11/17 12:00:04;;;;;;;15.18;8.02;;;;;;;15.86;nan;-24259.25;5032178;28;20176;-61
2022/11/17 12:02:58;;;;;;;16.23;7.90;;;;;;;15.96;nan;-24262.06;5031209;28;20183;-61
2022/11/17 12:05:36;;;;;;;15.10;8.25;;;;;;;16.07;nan;-24265.13;5032135;28;20164;-60
2022/11/17 12:08:11;;;;;;;17.33;8.00;;;;;;;16.06;nan;-24264.72;5032456;28;20195;-64
2022/11/17 12:10:56;;;;;;;22.30;8.68;;;;;;;15.74;nan;-24255.91;5032550;28;20171;-62
2022/11/17 12:13:23;;;;;;;14.73;7.47;;;;;;;15.77;nan;-24256.88;5031666;28;20581;-61
2022/11/17 12:15:48;;;;;;;17.02;8.40;;;;;;;16.20;nan;-24268.63;5032570;28;20646;-61
2022/11/17 12:18:17;;;;;;;19.23;8.27;;;;;;;16.07;nan;-24265.13;5032373;28;20178;-61
2022/11/17 12:20:55;;;;;;;17.75;8.13;;;;;;;16.33;nan;-24272.41;5032082;28;20262;-61
2022/11/17 12:23:33;;;;;;;17.15;7.65;;;;;;;16.23;nan;-24269.47;5032454;28;20209;-61
2022/11/17 12:26:00;;;;;;;18.23;8.60;;;;;;;15.98;nan;-24262.47;5032018;28;20629;-61
2022/11/17 12:28:34;;;;;;;20.42;9.15;;;;;;;16.21;nan;-24268.91;5031835;28;20668;-61
2022/11/17 12:31:08;;;;;;;20.30;9.73;;;;;;;16.21;nan;-24269.03;5031993;28;20171;-61
2022/11/17 12:33:52;;;;;;;18.50;8.48;;;;;;;16.27;nan;-24270.72;5031762;28;20171;-61
2022/11/17 12:36:23;;;;;;;17.70;8.05;;;;;;;15.96;nan;-24262.06;5031229;28;20233;-60
2022/11/17 12:38:50;;;;;;;16.95;8.50;;;;;;;15.94;nan;-24261.34;5031237;28;20258;-61
2022/11/17 12:41:50;;;;;;;21.60;9.93;;;;;;;16.20;nan;-24268.75;5031475;28;20210;-61
2022/11/17 12:44:31;;;;;;;19.80;8.98;;;;;;;16.20;nan;-24268.63;5031552;28;20187;-61
2022/11/17 12:47:08;;;;;;;20.40;9.00;;;;;;;15.85;nan;-24258.97;5031965;28;20530;-61
2022/11/17 12:49:54;;;;;;;19.75;8.93;;;;;;;16.02;nan;-24263.59;5031810;28;20226;-61
2022/11/17 12:52:33;;;;;;;17.95;9.30;;;;;;;15.66;nan;-24253.66;5031246;28;20249;-60
2022/11/17 12:55:27;;;;;;;18.23;9.23;;;;;;;15.99;nan;-24262.75;5031418;28;20615;-60
2022/11/17 12:58:07;;;;;;;20.05;8.55;;;;;;;16.03;nan;-24264.00;5016307;28;20674;-61
2022/11/17 13:00:56;;;;;;;19.30;9.48;;;;;;;15.69;nan;-24254.63;5031212;28;20560;-61
2022/11/17 13:03:43;;;;;;;21.83;10.68;;;;;;;15.57;nan;-24251.28;5023983;28;20274;-61